<?xml version="1.0" encoding="UTF-8" standalone="no" ?>
<gpx xmlns="http://www.topografix.com/GPX/1/1" xmlns:xsi="http://www.w3.org/2001/XMLSchema-instance" xsi:schemaLocation="http://www.topografix.com/GPX/1/1 http://www.topografix.com/GPX/1/1/gpx.xsd" version="1.1" creator="VisuGPX - https://www.visugpx.com">
  <metadata>
    <name>Norvège</name>
  </metadata>
  <trk>
    <name><![CDATA[Tour d'Europe: étape 047]]></name>
    <trkseg>
      <trkpt lat="65.872" lon="12.46641">
        <ele>48.650273</ele>
        <time>2020-08-14T07:13:50.349Z</time>
      </trkpt>
      <trkpt lat="65.87063" lon="12.46993">
        <ele>47.679305</ele>
        <time>2020-08-14T07:15:00.353Z</time>
      </trkpt>
      <trkpt lat="65.87132" lon="12.47507">
        <ele>49.527003</ele>
        <time>2020-08-14T07:15:54.371Z</time>
      </trkpt>
      <trkpt lat="65.87222" lon="12.47958">
        <ele>49.333787</ele>
        <time>2020-08-14T07:16:34.364Z</time>
      </trkpt>
      <trkpt lat="65.87387" lon="12.48516">
        <ele>42.975418</ele>
        <time>2020-08-14T07:17:16.352Z</time>
      </trkpt>
      <trkpt lat="65.87526" lon="12.48955">
        <ele>42.121334</ele>
        <time>2020-08-14T07:17:56.349Z</time>
      </trkpt>
      <trkpt lat="65.87654" lon="12.49378">
        <ele>42.968795</ele>
        <time>2020-08-14T07:18:38.376Z</time>
      </trkpt>
      <trkpt lat="65.8775" lon="12.49776">
        <ele>43.962109</ele>
        <time>2020-08-14T07:19:18.379Z</time>
      </trkpt>
      <trkpt lat="65.87864" lon="12.50206">
        <ele>42.793496</ele>
        <time>2020-08-14T07:20:04.335Z</time>
      </trkpt>
      <trkpt lat="65.88023" lon="12.50535">
        <ele>42.50218</ele>
        <time>2020-08-14T07:20:46.344Z</time>
      </trkpt>
      <trkpt lat="65.88206" lon="12.50833">
        <ele>45.603894</ele>
        <time>2020-08-14T07:21:35.345Z</time>
      </trkpt>
      <trkpt lat="65.8838" lon="12.5112">
        <ele>47.470759</ele>
        <time>2020-08-14T07:22:20.335Z</time>
      </trkpt>
      <trkpt lat="65.88563" lon="12.51308">
        <ele>45.087317</ele>
        <time>2020-08-14T07:23:00.371Z</time>
      </trkpt>
      <trkpt lat="65.88765" lon="12.51453">
        <ele>43.457576</ele>
        <time>2020-08-14T07:23:40.353Z</time>
      </trkpt>
      <trkpt lat="65.88945" lon="12.51821">
        <ele>41.981208</ele>
        <time>2020-08-14T07:24:33.330Z</time>
      </trkpt>
      <trkpt lat="65.89062" lon="12.5219">
        <ele>42.00833</ele>
        <time>2020-08-14T07:25:13.340Z</time>
      </trkpt>
      <trkpt lat="65.89179" lon="12.52574">
        <ele>43.265551</ele>
        <time>2020-08-14T07:25:55.369Z</time>
      </trkpt>
      <trkpt lat="65.89321" lon="12.53034">
        <ele>42.082037</ele>
        <time>2020-08-14T07:26:37.332Z</time>
      </trkpt>
      <trkpt lat="65.89463" lon="12.53399">
        <ele>43.624804</ele>
        <time>2020-08-14T07:27:17.358Z</time>
      </trkpt>
      <trkpt lat="65.89664" lon="12.536">
        <ele>45.012126</ele>
        <time>2020-08-14T07:28:00.352Z</time>
      </trkpt>
      <trkpt lat="65.8985" lon="12.53518">
        <ele>40.849484</ele>
        <time>2020-08-14T07:28:40.358Z</time>
      </trkpt>
      <trkpt lat="65.90043" lon="12.53232">
        <ele>42.352709</ele>
        <time>2020-08-14T07:29:32.353Z</time>
      </trkpt>
      <trkpt lat="65.90167" lon="12.52824">
        <ele>49.29721</ele>
        <time>2020-08-14T07:30:36.366Z</time>
      </trkpt>
      <trkpt lat="65.90236" lon="12.5235">
        <ele>56.438818</ele>
        <time>2020-08-14T07:31:56.361Z</time>
      </trkpt>
      <trkpt lat="65.90256" lon="12.51843">
        <ele>55.365073</ele>
        <time>2020-08-14T07:32:49.365Z</time>
      </trkpt>
      <trkpt lat="65.90214" lon="12.5135">
        <ele>49.947217</ele>
        <time>2020-08-14T07:33:29.339Z</time>
      </trkpt>
      <trkpt lat="65.90198" lon="12.50837">
        <ele>49.768625</ele>
        <time>2020-08-14T07:34:09.344Z</time>
      </trkpt>
      <trkpt lat="65.90191" lon="12.50319">
        <ele>50.90355</ele>
        <time>2020-08-14T07:34:51.344Z</time>
      </trkpt>
      <trkpt lat="65.90163" lon="12.49806">
        <ele>51.607887</ele>
        <time>2020-08-14T07:35:35.351Z</time>
      </trkpt>
      <trkpt lat="65.90141" lon="12.4928">
        <ele>58.0591</ele>
        <time>2020-08-14T07:36:46.350Z</time>
      </trkpt>
      <trkpt lat="65.90107" lon="12.48762">
        <ele>60.053071</ele>
        <time>2020-08-14T07:37:40.342Z</time>
      </trkpt>
      <trkpt lat="65.90068" lon="12.48193">
        <ele>61.632961</ele>
        <time>2020-08-14T07:38:37.355Z</time>
      </trkpt>
      <trkpt lat="65.89987" lon="12.47682">
        <ele>61.40374</ele>
        <time>2020-08-14T07:39:33.351Z</time>
      </trkpt>
      <trkpt lat="65.89871" lon="12.47051">
        <ele>51.430285</ele>
        <time>2020-08-14T07:40:13.344Z</time>
      </trkpt>
      <trkpt lat="65.89744" lon="12.465">
        <ele>47.823268</ele>
        <time>2020-08-14T07:40:55.372Z</time>
      </trkpt>
      <trkpt lat="65.89674" lon="12.46016">
        <ele>46.664269</ele>
        <time>2020-08-14T07:41:37.348Z</time>
      </trkpt>
      <trkpt lat="65.89702" lon="12.45478">
        <ele>45.839376</ele>
        <time>2020-08-14T07:42:19.356Z</time>
      </trkpt>
      <trkpt lat="65.89701" lon="12.44984">
        <ele>44.461352</ele>
        <time>2020-08-14T07:43:01.338Z</time>
      </trkpt>
      <trkpt lat="65.89787" lon="12.44474">
        <ele>49.01605</ele>
        <time>2020-08-14T07:44:07.354Z</time>
      </trkpt>
      <trkpt lat="65.89768" lon="12.43958">
        <ele>51.205263</ele>
        <time>2020-08-14T07:45:01.359Z</time>
      </trkpt>
      <trkpt lat="65.89618" lon="12.43609">
        <ele>48.162416</ele>
        <time>2020-08-14T07:45:45.341Z</time>
      </trkpt>
      <trkpt lat="65.89443" lon="12.43256">
        <ele>47.490085</ele>
        <time>2020-08-14T07:46:30.350Z</time>
      </trkpt>
      <trkpt lat="65.89335" lon="12.42694">
        <ele>46.102784</ele>
        <time>2020-08-14T07:47:30.352Z</time>
      </trkpt>
      <trkpt lat="65.89211" lon="12.42258">
        <ele>45.070603</ele>
        <time>2020-08-14T07:48:15.371Z</time>
      </trkpt>
      <trkpt lat="65.89137" lon="12.41763">
        <ele>49.266958</ele>
        <time>2020-08-14T07:49:15.374Z</time>
      </trkpt>
      <trkpt lat="65.89088" lon="12.41256">
        <ele>60.577751</ele>
        <time>2020-08-14T07:50:29.361Z</time>
      </trkpt>
      <trkpt lat="65.89183" lon="12.40835">
        <ele>67.376798</ele>
        <time>2020-08-14T07:51:51.363Z</time>
      </trkpt>
      <trkpt lat="65.8941" lon="12.40704">
        <ele>63.905427</ele>
        <time>2020-08-14T07:52:53.366Z</time>
      </trkpt>
      <trkpt lat="65.89684" lon="12.40442">
        <ele>48.467001</ele>
        <time>2020-08-14T07:53:33.356Z</time>
      </trkpt>
      <trkpt lat="65.89911" lon="12.40332">
        <ele>47.051836</ele>
        <time>2020-08-14T07:54:10.391Z</time>
      </trkpt>
      <trkpt lat="65.90142" lon="12.40533">
        <ele>46.146473</ele>
        <time>2020-08-14T07:54:42.341Z</time>
      </trkpt>
      <trkpt lat="65.9032" lon="12.40811">
        <ele>53.273725</ele>
        <time>2020-08-14T07:55:48.349Z</time>
      </trkpt>
      <trkpt lat="65.90524" lon="12.41128">
        <ele>57.110193</ele>
        <time>2020-08-14T07:56:32.357Z</time>
      </trkpt>
      <trkpt lat="65.90705" lon="12.41473">
        <ele>59.10635</ele>
        <time>2020-08-14T07:57:30.349Z</time>
      </trkpt>
      <trkpt lat="65.90914" lon="12.41777">
        <ele>60.753135</ele>
        <time>2020-08-14T07:58:30.372Z</time>
      </trkpt>
      <trkpt lat="65.91113" lon="12.42178">
        <ele>62.058249</ele>
        <time>2020-08-14T07:59:30.371Z</time>
      </trkpt>
      <trkpt lat="65.91272" lon="12.42612">
        <ele>62.882439</ele>
        <time>2020-08-14T08:00:26.370Z</time>
      </trkpt>
      <trkpt lat="65.91443" lon="12.42905">
        <ele>64.838532</ele>
        <time>2020-08-14T08:01:10.410Z</time>
      </trkpt>
      <trkpt lat="65.91611" lon="12.4331">
        <ele>65.863599</ele>
        <time>2020-08-14T08:02:07.346Z</time>
      </trkpt>
      <trkpt lat="65.91774" lon="12.43565">
        <ele>69.402011</ele>
        <time>2020-08-14T08:02:48.376Z</time>
      </trkpt>
      <trkpt lat="65.91933" lon="12.4401">
        <ele>66.158037</ele>
        <time>2020-08-14T08:03:44.372Z</time>
      </trkpt>
      <trkpt lat="65.9201" lon="12.44495">
        <ele>66.752583</ele>
        <time>2020-08-14T08:04:44.361Z</time>
      </trkpt>
      <trkpt lat="65.92078" lon="12.45061">
        <ele>64.700927</ele>
        <time>2020-08-14T08:05:36.397Z</time>
      </trkpt>
      <trkpt lat="65.9224" lon="12.45488">
        <ele>55.920864</ele>
        <time>2020-08-14T08:06:02.361Z</time>
      </trkpt>
      <trkpt lat="65.92439" lon="12.45707">
        <ele>44.280935</ele>
        <time>2020-08-14T08:06:22.371Z</time>
      </trkpt>
      <trkpt lat="65.92639" lon="12.46107">
        <ele>39.317135</ele>
        <time>2020-08-14T08:06:57.346Z</time>
      </trkpt>
      <trkpt lat="65.92842" lon="12.4642">
        <ele>42.237951</ele>
        <time>2020-08-14T08:07:37.420Z</time>
      </trkpt>
      <trkpt lat="65.93061" lon="12.46539">
        <ele>43.966702</ele>
        <time>2020-08-14T08:08:17.362Z</time>
      </trkpt>
      <trkpt lat="65.93293" lon="12.46529">
        <ele>44.772517</ele>
        <time>2020-08-14T08:09:18.397Z</time>
      </trkpt>
      <trkpt lat="65.93535" lon="12.46486">
        <ele>42.682438</ele>
        <time>2020-08-14T08:10:12.343Z</time>
      </trkpt>
      <trkpt lat="65.93747" lon="12.46274">
        <ele>45.705707</ele>
        <time>2020-08-14T08:11:12.376Z</time>
      </trkpt>
      <trkpt lat="65.9392" lon="12.45975">
        <ele>44.660363</ele>
        <time>2020-08-14T08:12:02.365Z</time>
      </trkpt>
      <trkpt lat="65.94129" lon="12.45814">
        <ele>46.229702</ele>
        <time>2020-08-14T08:12:51.356Z</time>
      </trkpt>
      <trkpt lat="65.94362" lon="12.45869">
        <ele>51.61715</ele>
        <time>2020-08-14T08:13:49.361Z</time>
      </trkpt>
      <trkpt lat="65.9457" lon="12.46058">
        <ele>49.062413</ele>
        <time>2020-08-14T08:14:32.351Z</time>
      </trkpt>
      <trkpt lat="65.9478" lon="12.46223">
        <ele>44.864822</ele>
        <time>2020-08-14T08:15:17.378Z</time>
      </trkpt>
      <trkpt lat="65.94983" lon="12.46408">
        <ele>48.946944</ele>
        <time>2020-08-14T08:16:05.353Z</time>
      </trkpt>
      <trkpt lat="65.95165" lon="12.46599">
        <ele>49.500362</ele>
        <time>2020-08-14T08:16:45.382Z</time>
      </trkpt>
      <trkpt lat="65.95356" lon="12.46808">
        <ele>52.432267</ele>
        <time>2020-08-14T08:17:28.368Z</time>
      </trkpt>
      <trkpt lat="65.95568" lon="12.47061">
        <ele>60.918982</ele>
        <time>2020-08-14T08:18:26.382Z</time>
      </trkpt>
      <trkpt lat="65.95773" lon="12.47417">
        <ele>62.85889</ele>
        <time>2020-08-14T08:19:29.381Z</time>
      </trkpt>
      <trkpt lat="65.95969" lon="12.47714">
        <ele>65.464506</ele>
        <time>2020-08-14T08:20:25.400Z</time>
      </trkpt>
      <trkpt lat="65.96157" lon="12.4793">
        <ele>64.370788</ele>
        <time>2020-08-14T08:21:11.389Z</time>
      </trkpt>
      <trkpt lat="65.96332" lon="12.48294">
        <ele>72.486161</ele>
        <time>2020-08-14T08:22:13.352Z</time>
      </trkpt>
      <trkpt lat="65.96453" lon="12.4868">
        <ele>81.605151</ele>
        <time>2020-08-14T08:23:21.366Z</time>
      </trkpt>
      <trkpt lat="65.96523" lon="12.49154">
        <ele>91.456284</ele>
        <time>2020-08-14T08:24:50.375Z</time>
      </trkpt>
      <trkpt lat="65.96499" lon="12.49648">
        <ele>102.046138</ele>
        <time>2020-08-14T08:26:30.376Z</time>
      </trkpt>
      <trkpt lat="65.96605" lon="12.50094">
        <ele>99.791163</ele>
        <time>2020-08-14T08:27:36.359Z</time>
      </trkpt>
      <trkpt lat="65.96774" lon="12.50498">
        <ele>103.238997</ele>
        <time>2020-08-14T08:28:39.353Z</time>
      </trkpt>
      <trkpt lat="65.9691" lon="12.5097">
        <ele>106.155345</ele>
        <time>2020-08-14T08:29:38.358Z</time>
      </trkpt>
      <trkpt lat="65.97065" lon="12.51383">
        <ele>111.139922</ele>
        <time>2020-08-14T08:30:40.368Z</time>
      </trkpt>
      <trkpt lat="65.97237" lon="12.51716">
        <ele>117.803829</ele>
        <time>2020-08-14T08:31:48.372Z</time>
      </trkpt>
      <trkpt lat="65.97412" lon="12.52046">
        <ele>119.396057</ele>
        <time>2020-08-14T08:32:49.355Z</time>
      </trkpt>
      <trkpt lat="65.97611" lon="12.52427">
        <ele>119.424024</ele>
        <time>2020-08-14T08:33:34.367Z</time>
      </trkpt>
      <trkpt lat="65.97828" lon="12.52899">
        <ele>113.137954</ele>
        <time>2020-08-14T08:34:14.373Z</time>
      </trkpt>
      <trkpt lat="65.97984" lon="12.5334">
        <ele>114.761694</ele>
        <time>2020-08-14T08:34:54.362Z</time>
      </trkpt>
      <trkpt lat="65.98144" lon="12.53789">
        <ele>113.601478</ele>
        <time>2020-08-14T08:35:36.364Z</time>
      </trkpt>
      <trkpt lat="65.98305" lon="12.54267">
        <ele>114.667519</ele>
        <time>2020-08-14T08:36:16.376Z</time>
      </trkpt>
      <trkpt lat="65.98482" lon="12.54752">
        <ele>115.479089</ele>
        <time>2020-08-14T08:36:58.378Z</time>
      </trkpt>
      <trkpt lat="65.98687" lon="12.5512">
        <ele>115.410351</ele>
        <time>2020-08-14T08:37:38.356Z</time>
      </trkpt>
      <trkpt lat="65.98845" lon="12.55574">
        <ele>112.132577</ele>
        <time>2020-08-14T08:38:18.393Z</time>
      </trkpt>
      <trkpt lat="65.99017" lon="12.56074">
        <ele>112.734664</ele>
        <time>2020-08-14T08:39:00.373Z</time>
      </trkpt>
      <trkpt lat="65.99204" lon="12.56471">
        <ele>116.094521</ele>
        <time>2020-08-14T08:39:40.354Z</time>
      </trkpt>
      <trkpt lat="65.99361" lon="12.56888">
        <ele>118.980912</ele>
        <time>2020-08-14T08:40:31.372Z</time>
      </trkpt>
      <trkpt lat="65.99516" lon="12.57374">
        <ele>113.799858</ele>
        <time>2020-08-14T08:41:11.367Z</time>
      </trkpt>
      <trkpt lat="65.99684" lon="12.57863">
        <ele>111.396444</ele>
        <time>2020-08-14T08:41:51.372Z</time>
      </trkpt>
      <trkpt lat="65.99901" lon="12.58482">
        <ele>102.858863</ele>
        <time>2020-08-14T08:42:33.367Z</time>
      </trkpt>
      <trkpt lat="66.00118" lon="12.59062">
        <ele>96.503348</ele>
        <time>2020-08-14T08:43:13.376Z</time>
      </trkpt>
      <trkpt lat="66.00272" lon="12.59641">
        <ele>88.579258</ele>
        <time>2020-08-14T08:43:55.390Z</time>
      </trkpt>
      <trkpt lat="66.00445" lon="12.60219">
        <ele>89.178061</ele>
        <time>2020-08-14T08:44:35.428Z</time>
      </trkpt>
      <trkpt lat="66.00638" lon="12.60545">
        <ele>83.431926</ele>
        <time>2020-08-14T08:45:01.369Z</time>
      </trkpt>
      <trkpt lat="66.00866" lon="12.60865">
        <ele>74.065833</ele>
        <time>2020-08-14T08:45:32.387Z</time>
      </trkpt>
      <trkpt lat="66.01044" lon="12.61273">
        <ele>70.94783</ele>
        <time>2020-08-14T08:46:12.375Z</time>
      </trkpt>
      <trkpt lat="66.01204" lon="12.61782">
        <ele>75.933889</ele>
        <time>2020-08-14T08:46:54.358Z</time>
      </trkpt>
      <trkpt lat="66.01372" lon="12.62276">
        <ele>75.783525</ele>
        <time>2020-08-14T08:47:34.373Z</time>
      </trkpt>
      <trkpt lat="66.01564" lon="12.62746">
        <ele>71.336128</ele>
        <time>2020-08-14T08:48:11.357Z</time>
      </trkpt>
      <trkpt lat="66.01743" lon="12.63083">
        <ele>61.607719</ele>
        <time>2020-08-14T08:48:33.385Z</time>
      </trkpt>
      <trkpt lat="66.01719" lon="12.63594">
        <ele>57.018486</ele>
        <time>2020-08-14T08:49:20.363Z</time>
      </trkpt>
      <trkpt lat="66.01635" lon="12.63937">
        <ele>63.747315</ele>
        <time>2020-08-14T08:50:53.352Z</time>
      </trkpt>
      <trkpt lat="66.01621" lon="12.64477">
        <ele>67.102539</ele>
        <time>2020-08-14T08:51:55.390Z</time>
      </trkpt>
      <trkpt lat="66.01647" lon="12.64967">
        <ele>78.236212</ele>
        <time>2020-08-14T08:53:30.361Z</time>
      </trkpt>
      <trkpt lat="66.01705" lon="12.65484">
        <ele>83.492808</ele>
        <time>2020-08-14T08:54:49.350Z</time>
      </trkpt>
      <trkpt lat="66.01797" lon="12.65917">
        <ele>88.781974</ele>
        <time>2020-08-14T08:55:54.397Z</time>
      </trkpt>
      <trkpt lat="66.01906" lon="12.66351">
        <ele>91.401447</ele>
        <time>2020-08-14T08:57:03.390Z</time>
      </trkpt>
      <trkpt lat="66.02043" lon="12.66908">
        <ele>82.402505</ele>
        <time>2020-08-14T08:57:45.383Z</time>
      </trkpt>
      <trkpt lat="66.02155" lon="12.67359">
        <ele>72.940923</ele>
        <time>2020-08-14T08:58:05.382Z</time>
      </trkpt>
      <trkpt lat="66.02282" lon="12.67914">
        <ele>66.159589</ele>
        <time>2020-08-14T08:58:26.379Z</time>
      </trkpt>
      <trkpt lat="66.02386" lon="12.68471">
        <ele>55.201608</ele>
        <time>2020-08-14T08:58:46.370Z</time>
      </trkpt>
      <trkpt lat="66.02462" lon="12.69036">
        <ele>49.724238</ele>
        <time>2020-08-14T08:59:12.373Z</time>
      </trkpt>
      <trkpt lat="66.02621" lon="12.69495">
        <ele>43.5607</ele>
        <time>2020-08-14T08:59:54.379Z</time>
      </trkpt>
      <trkpt lat="66.02863" lon="12.69609">
        <ele>43.283832</ele>
        <time>2020-08-14T09:00:34.418Z</time>
      </trkpt>
      <trkpt lat="66.02988" lon="12.70113">
        <ele>45.978243</ele>
        <time>2020-08-14T09:01:16.371Z</time>
      </trkpt>
      <trkpt lat="66.03102" lon="12.70638">
        <ele>44.859981</ele>
        <time>2020-08-14T09:01:56.400Z</time>
      </trkpt>
      <trkpt lat="66.03213" lon="12.71156">
        <ele>46.612731</ele>
        <time>2020-08-14T09:02:36.376Z</time>
      </trkpt>
      <trkpt lat="66.03276" lon="12.71715">
        <ele>48.574019</ele>
        <time>2020-08-14T09:03:19.357Z</time>
      </trkpt>
      <trkpt lat="66.03343" lon="12.72158">
        <ele>62.408926</ele>
        <time>2020-08-14T09:04:41.362Z</time>
      </trkpt>
      <trkpt lat="66.03548" lon="12.72156">
        <ele>73.404907</ele>
        <time>2020-08-14T09:06:26.376Z</time>
      </trkpt>
      <trkpt lat="66.03744" lon="12.72053">
        <ele>83.165832</ele>
        <time>2020-08-14T09:08:08.413Z</time>
      </trkpt>
      <trkpt lat="66.03948" lon="12.71948">
        <ele>87.935142</ele>
        <time>2020-08-14T09:09:22.386Z</time>
      </trkpt>
      <trkpt lat="66.04178" lon="12.7183">
        <ele>86.906138</ele>
        <time>2020-08-14T09:10:23.363Z</time>
      </trkpt>
      <trkpt lat="66.04387" lon="12.7206">
        <ele>87.802433</ele>
        <time>2020-08-14T09:11:18.368Z</time>
      </trkpt>
      <trkpt lat="66.04472" lon="12.72571">
        <ele>89.472928</ele>
        <time>2020-08-14T09:12:07.386Z</time>
      </trkpt>
      <trkpt lat="66.04558" lon="12.73061">
        <ele>88.715166</ele>
        <time>2020-08-14T09:12:47.395Z</time>
      </trkpt>
      <trkpt lat="66.04797" lon="12.73393">
        <ele>80.707903</ele>
        <time>2020-08-14T09:13:27.392Z</time>
      </trkpt>
      <trkpt lat="66.05034" lon="12.73737">
        <ele>68.817284</ele>
        <time>2020-08-14T09:14:05.388Z</time>
      </trkpt>
      <trkpt lat="66.05144" lon="12.74232">
        <ele>59.379036</ele>
        <time>2020-08-14T09:14:25.372Z</time>
      </trkpt>
      <trkpt lat="66.05245" lon="12.74781">
        <ele>59.464109</ele>
        <time>2020-08-14T09:14:53.372Z</time>
      </trkpt>
      <trkpt lat="66.05323" lon="12.7529">
        <ele>61.92391</ele>
        <time>2020-08-14T09:15:43.373Z</time>
      </trkpt>
      <trkpt lat="66.05435" lon="12.75801">
        <ele>59.734451</ele>
        <time>2020-08-14T09:16:30.413Z</time>
      </trkpt>
      <trkpt lat="66.05559" lon="12.76506">
        <ele>54.038569</ele>
        <time>2020-08-14T09:17:12.380Z</time>
      </trkpt>
      <trkpt lat="66.05664" lon="12.77067">
        <ele>53.1437</ele>
        <time>2020-08-14T09:17:55.375Z</time>
      </trkpt>
      <trkpt lat="66.05751" lon="12.77519">
        <ele>53.37396</ele>
        <time>2020-08-14T09:18:35.383Z</time>
      </trkpt>
      <trkpt lat="66.05865" lon="12.78151">
        <ele>50.260788</ele>
        <time>2020-08-14T09:19:17.383Z</time>
      </trkpt>
      <trkpt lat="66.0595" lon="12.78668">
        <ele>51.588931</ele>
        <time>2020-08-14T09:20:01.378Z</time>
      </trkpt>
      <trkpt lat="66.06008" lon="12.79295">
        <ele>56.628976</ele>
        <time>2020-08-14T09:21:02.370Z</time>
      </trkpt>
      <trkpt lat="66.0608" lon="12.79786">
        <ele>58.923866</ele>
        <time>2020-08-14T09:22:05.368Z</time>
      </trkpt>
      <trkpt lat="66.06169" lon="12.80256">
        <ele>63.136825</ele>
        <time>2020-08-14T09:23:13.372Z</time>
      </trkpt>
      <trkpt lat="66.06238" lon="12.80773">
        <ele>67.335993</ele>
        <time>2020-08-14T09:24:16.399Z</time>
      </trkpt>
      <trkpt lat="66.06302" lon="12.81314">
        <ele>65.679141</ele>
        <time>2020-08-14T09:25:09.395Z</time>
      </trkpt>
      <trkpt lat="66.06409" lon="12.81951">
        <ele>60.494371</ele>
        <time>2020-08-14T09:25:51.379Z</time>
      </trkpt>
      <trkpt lat="66.06503" lon="12.8243">
        <ele>56.339018</ele>
        <time>2020-08-14T09:26:14.386Z</time>
      </trkpt>
      <trkpt lat="66.06558" lon="12.82993">
        <ele>49.732033</ele>
        <time>2020-08-14T09:26:45.397Z</time>
      </trkpt>
      <trkpt lat="66.06596" lon="12.83635">
        <ele>46.829322</ele>
        <time>2020-08-14T09:27:18.367Z</time>
      </trkpt>
      <trkpt lat="66.06642" lon="12.84172">
        <ele>49.834232</ele>
        <time>2020-08-14T09:28:13.373Z</time>
      </trkpt>
      <trkpt lat="66.06675" lon="12.84664">
        <ele>52.458632</ele>
        <time>2020-08-14T09:29:16.383Z</time>
      </trkpt>
      <trkpt lat="66.06711" lon="12.85135">
        <ele>57.291663</ele>
        <time>2020-08-14T09:30:19.393Z</time>
      </trkpt>
      <trkpt lat="66.06746" lon="12.8566">
        <ele>59.949824</ele>
        <time>2020-08-14T09:31:25.428Z</time>
      </trkpt>
      <trkpt lat="66.06788" lon="12.86188">
        <ele>62.676009</ele>
        <time>2020-08-14T09:32:22.381Z</time>
      </trkpt>
      <trkpt lat="66.06832" lon="12.8672">
        <ele>63.228458</ele>
        <time>2020-08-14T09:33:13.417Z</time>
      </trkpt>
      <trkpt lat="66.06834" lon="12.87311">
        <ele>63.190024</ele>
        <time>2020-08-14T09:34:07.392Z</time>
      </trkpt>
      <trkpt lat="66.06826" lon="12.87849">
        <ele>62.103613</ele>
        <time>2020-08-14T09:34:58.381Z</time>
      </trkpt>
      <trkpt lat="66.06821" lon="12.88446">
        <ele>63.329683</ele>
        <time>2020-08-14T09:47:26.386Z</time>
      </trkpt>
      <trkpt lat="66.06822" lon="12.89041">
        <ele>64.532903</ele>
        <time>2020-08-14T09:48:29.371Z</time>
      </trkpt>
      <trkpt lat="66.06823" lon="12.89567">
        <ele>68.676511</ele>
        <time>2020-08-14T09:49:33.407Z</time>
      </trkpt>
      <trkpt lat="66.0681" lon="12.90069">
        <ele>72.763684</ele>
        <time>2020-08-14T09:50:39.391Z</time>
      </trkpt>
      <trkpt lat="66.06783" lon="12.90584">
        <ele>74.880303</ele>
        <time>2020-08-14T09:51:44.381Z</time>
      </trkpt>
      <trkpt lat="66.06755" lon="12.91135">
        <ele>75.664983</ele>
        <time>2020-08-14T09:52:44.383Z</time>
      </trkpt>
      <trkpt lat="66.06726" lon="12.9171">
        <ele>78.271522</ele>
        <time>2020-08-14T09:53:46.419Z</time>
      </trkpt>
      <trkpt lat="66.06699" lon="12.92207">
        <ele>75.576512</ele>
        <time>2020-08-14T09:54:30.394Z</time>
      </trkpt>
      <trkpt lat="66.06665" lon="12.92722">
        <ele>72.071797</ele>
        <time>2020-08-14T09:55:10.383Z</time>
      </trkpt>
      <trkpt lat="66.06575" lon="12.93315">
        <ele>66.939372</ele>
        <time>2020-08-14T09:55:52.372Z</time>
      </trkpt>
      <trkpt lat="66.06474" lon="12.93763">
        <ele>65.766309</ele>
        <time>2020-08-14T09:56:41.375Z</time>
      </trkpt>
      <trkpt lat="66.065" lon="12.93635">
        <ele>64.14955</ele>
        <time>2020-08-14T10:27:49.405Z</time>
      </trkpt>
      <trkpt lat="66.0642" lon="12.94095">
        <ele>68.081679</ele>
        <time>2020-08-14T10:28:38.377Z</time>
      </trkpt>
      <trkpt lat="66.06428" lon="12.94682">
        <ele>65.720512</ele>
        <time>2020-08-14T10:29:18.394Z</time>
      </trkpt>
      <trkpt lat="66.06554" lon="12.95173">
        <ele>60.359824</ele>
        <time>2020-08-14T10:30:00.432Z</time>
      </trkpt>
      <trkpt lat="66.06666" lon="12.95612">
        <ele>60.740166</ele>
        <time>2020-08-14T10:30:40.382Z</time>
      </trkpt>
      <trkpt lat="66.06766" lon="12.96146">
        <ele>62.284653</ele>
        <time>2020-08-14T10:31:22.409Z</time>
      </trkpt>
      <trkpt lat="66.06859" lon="12.9673">
        <ele>63.32308</ele>
        <time>2020-08-14T10:32:02.395Z</time>
      </trkpt>
      <trkpt lat="66.06917" lon="12.9726">
        <ele>62.607325</ele>
        <time>2020-08-14T10:32:42.421Z</time>
      </trkpt>
      <trkpt lat="66.06955" lon="12.98058">
        <ele>57.052103</ele>
        <time>2020-08-14T10:33:24.391Z</time>
      </trkpt>
      <trkpt lat="66.06997" lon="12.98734">
        <ele>54.923462</ele>
        <time>2020-08-14T10:34:04.376Z</time>
      </trkpt>
      <trkpt lat="66.07087" lon="12.99268">
        <ele>52.112001</ele>
        <time>2020-08-14T10:34:46.383Z</time>
      </trkpt>
      <trkpt lat="66.07193" lon="12.99789">
        <ele>50.432955</ele>
        <time>2020-08-14T10:35:26.389Z</time>
      </trkpt>
      <trkpt lat="66.0729" lon="13.00276">
        <ele>56.402985</ele>
        <time>2020-08-14T10:36:13.390Z</time>
      </trkpt>
      <trkpt lat="66.07389" lon="13.00795">
        <ele>64.491576</ele>
        <time>2020-08-14T10:37:16.401Z</time>
      </trkpt>
      <trkpt lat="66.0746" lon="13.01276">
        <ele>68.807803</ele>
        <time>2020-08-14T10:38:26.394Z</time>
      </trkpt>
      <trkpt lat="66.07593" lon="13.01783">
        <ele>62.987528</ele>
        <time>2020-08-14T10:39:04.392Z</time>
      </trkpt>
      <trkpt lat="66.0772" lon="13.02302">
        <ele>58.18017</ele>
        <time>2020-08-14T10:39:35.394Z</time>
      </trkpt>
      <trkpt lat="66.07842" lon="13.02742">
        <ele>63.604702</ele>
        <time>2020-08-14T10:40:26.431Z</time>
      </trkpt>
      <trkpt lat="66.07946" lon="13.03216">
        <ele>72.838996</ele>
        <time>2020-08-14T10:41:40.419Z</time>
      </trkpt>
      <trkpt lat="66.08012" lon="13.03711">
        <ele>77.873227</ele>
        <time>2020-08-14T10:42:40.416Z</time>
      </trkpt>
      <trkpt lat="66.0816" lon="13.04075">
        <ele>76.148853</ele>
        <time>2020-08-14T10:43:41.387Z</time>
      </trkpt>
      <trkpt lat="66.08359" lon="13.04392">
        <ele>77.014048</ele>
        <time>2020-08-14T10:44:35.378Z</time>
      </trkpt>
      <trkpt lat="66.08548" lon="13.04697">
        <ele>80.951145</ele>
        <time>2020-08-14T10:45:35.388Z</time>
      </trkpt>
      <trkpt lat="66.08734" lon="13.0499">
        <ele>89.496501</ele>
        <time>2020-08-14T10:46:46.393Z</time>
      </trkpt>
      <trkpt lat="66.08905" lon="13.05259">
        <ele>100.863</ele>
        <time>2020-08-14T10:48:11.382Z</time>
      </trkpt>
      <trkpt lat="66.09077" lon="13.05534">
        <ele>101.514311</ele>
        <time>2020-08-14T10:49:02.403Z</time>
      </trkpt>
      <trkpt lat="66.09322" lon="13.05782">
        <ele>99.638971</ele>
        <time>2020-08-14T10:49:44.431Z</time>
      </trkpt>
      <trkpt lat="66.09553" lon="13.05937">
        <ele>103.168915</ele>
        <time>2020-08-14T10:50:33.388Z</time>
      </trkpt>
      <trkpt lat="66.09789" lon="13.06094">
        <ele>98.427258</ele>
        <time>2020-08-14T10:51:01.403Z</time>
      </trkpt>
      <trkpt lat="66.10013" lon="13.06266">
        <ele>97.341237</ele>
        <time>2020-08-14T10:51:40.373Z</time>
      </trkpt>
      <trkpt lat="66.10242" lon="13.0659">
        <ele>92.055522</ele>
        <time>2020-08-14T10:52:20.400Z</time>
      </trkpt>
      <trkpt lat="66.10466" lon="13.06912">
        <ele>97.309022</ele>
        <time>2020-08-14T10:53:18.398Z</time>
      </trkpt>
      <trkpt lat="66.1068" lon="13.0718">
        <ele>103.287038</ele>
        <time>2020-08-14T10:54:18.379Z</time>
      </trkpt>
      <trkpt lat="66.10898" lon="13.07266">
        <ele>120.405708</ele>
        <time>2020-08-14T10:55:47.385Z</time>
      </trkpt>
      <trkpt lat="66.11089" lon="13.0748">
        <ele>124.357457</ele>
        <time>2020-08-14T10:56:59.396Z</time>
      </trkpt>
      <trkpt lat="66.11352" lon="13.07678">
        <ele>115.588256</ele>
        <time>2020-08-14T10:57:54.398Z</time>
      </trkpt>
      <trkpt lat="66.11434" lon="13.07196">
        <ele>114.990256</ele>
        <time>2020-08-14T10:59:02.416Z</time>
      </trkpt>
      <trkpt lat="66.11589" lon="13.06793">
        <ele>111.354912</ele>
        <time>2020-08-14T10:59:36.378Z</time>
      </trkpt>
      <trkpt lat="66.11778" lon="13.06451">
        <ele>111.701273</ele>
        <time>2020-08-14T11:00:18.398Z</time>
      </trkpt>
      <trkpt lat="66.11978" lon="13.0638">
        <ele>134.171143</ele>
        <time>2020-08-14T11:01:43.401Z</time>
      </trkpt>
      <trkpt lat="66.12169" lon="13.06532">
        <ele>152.856601</ele>
        <time>2020-08-14T11:03:19.374Z</time>
      </trkpt>
      <trkpt lat="66.12407" lon="13.06594">
        <ele>143.997115</ele>
        <time>2020-08-14T11:04:02.388Z</time>
      </trkpt>
      <trkpt lat="66.12625" lon="13.06585">
        <ele>147.430733</ele>
        <time>2020-08-14T11:05:11.391Z</time>
      </trkpt>
      <trkpt lat="66.12841" lon="13.06525">
        <ele>154.834711</ele>
        <time>2020-08-14T11:06:33.379Z</time>
      </trkpt>
      <trkpt lat="66.13088" lon="13.06568">
        <ele>145.345364</ele>
        <time>2020-08-14T11:07:01.382Z</time>
      </trkpt>
      <trkpt lat="66.13329" lon="13.06665">
        <ele>134.922748</ele>
        <time>2020-08-14T11:07:31.387Z</time>
      </trkpt>
      <trkpt lat="66.13605" lon="13.06706">
        <ele>127.01534</ele>
        <time>2020-08-14T11:08:06.388Z</time>
      </trkpt>
      <trkpt lat="66.13781" lon="13.07197">
        <ele>113.513383</ele>
        <time>2020-08-14T11:08:26.413Z</time>
      </trkpt>
      <trkpt lat="66.13824" lon="13.07826">
        <ele>92.633645</ele>
        <time>2020-08-14T11:08:46.395Z</time>
      </trkpt>
      <trkpt lat="66.14033" lon="13.08131">
        <ele>71.03275</ele>
        <time>2020-08-14T11:09:07.393Z</time>
      </trkpt>
      <trkpt lat="66.14236" lon="13.08404">
        <ele>56.175383</ele>
        <time>2020-08-14T11:09:27.381Z</time>
      </trkpt>
      <trkpt lat="66.14418" lon="13.0891">
        <ele>45.666827</ele>
        <time>2020-08-14T11:09:58.394Z</time>
      </trkpt>
      <trkpt lat="66.1468" lon="13.09163">
        <ele>38.593876</ele>
        <time>2020-08-14T11:10:32.448Z</time>
      </trkpt>
      <trkpt lat="66.14916" lon="13.09279">
        <ele>48.794253</ele>
        <time>2020-08-14T11:11:27.414Z</time>
      </trkpt>
      <trkpt lat="66.15096" lon="13.09544">
        <ele>74.38881</ele>
        <time>2020-08-14T11:12:57.401Z</time>
      </trkpt>
      <trkpt lat="66.15266" lon="13.09898">
        <ele>71.402551</ele>
        <time>2020-08-14T11:13:50.379Z</time>
      </trkpt>
      <trkpt lat="66.15417" lon="13.10028">
        <ele>55.25597</ele>
        <time>2020-08-14T11:14:35.440Z</time>
      </trkpt>
      <trkpt lat="66.15456" lon="13.09514">
        <ele>54.139598</ele>
        <time>2020-08-14T11:15:37.397Z</time>
      </trkpt>
      <trkpt lat="66.15483" lon="13.08947">
        <ele>52.021049</ele>
        <time>2020-08-14T11:16:28.377Z</time>
      </trkpt>
      <trkpt lat="66.15402" lon="13.08381">
        <ele>39.976793</ele>
        <time>2020-08-14T11:17:06.389Z</time>
      </trkpt>
      <trkpt lat="66.15441" lon="13.07639">
        <ele>49.992133</ele>
        <time>2020-08-14T11:58:03.877Z</time>
      </trkpt>
      <trkpt lat="66.1566" lon="13.07799">
        <ele>34.592701</ele>
        <time>2020-08-14T11:58:53.889Z</time>
      </trkpt>
      <trkpt lat="66.1587" lon="13.07787">
        <ele>29.486597</ele>
        <time>2020-08-14T11:59:36.867Z</time>
      </trkpt>
      <trkpt lat="66.16002" lon="13.07372">
        <ele>31.206891</ele>
        <time>2020-08-14T12:00:26.887Z</time>
      </trkpt>
      <trkpt lat="66.16104" lon="13.06872">
        <ele>34.542987</ele>
        <time>2020-08-14T12:01:11.869Z</time>
      </trkpt>
      <trkpt lat="66.16181" lon="13.06415">
        <ele>45.346026</ele>
        <time>2020-08-14T12:01:51.880Z</time>
      </trkpt>
      <trkpt lat="66.16276" lon="13.05938">
        <ele>50.966629</ele>
        <time>2020-08-14T12:02:35.868Z</time>
      </trkpt>
      <trkpt lat="66.16364" lon="13.05452">
        <ele>46.776788</ele>
        <time>2020-08-14T12:03:16.886Z</time>
      </trkpt>
      <trkpt lat="66.16458" lon="13.04974">
        <ele>40.334565</ele>
        <time>2020-08-14T12:04:00.891Z</time>
      </trkpt>
      <trkpt lat="66.16545" lon="13.04474">
        <ele>44.445729</ele>
        <time>2020-08-14T12:04:44.876Z</time>
      </trkpt>
      <trkpt lat="66.16637" lon="13.0402">
        <ele>47.403703</ele>
        <time>2020-08-14T12:05:26.879Z</time>
      </trkpt>
      <trkpt lat="66.16717" lon="13.03563">
        <ele>56.871242</ele>
        <time>2020-08-14T12:06:06.878Z</time>
      </trkpt>
      <trkpt lat="66.16817" lon="13.0309">
        <ele>71.578758</ele>
        <time>2020-08-14T12:06:48.892Z</time>
      </trkpt>
      <trkpt lat="66.16909" lon="13.02617">
        <ele>65.128456</ele>
        <time>2020-08-14T12:07:30.874Z</time>
      </trkpt>
      <trkpt lat="66.16994" lon="13.02129">
        <ele>44.440373</ele>
        <time>2020-08-14T12:08:12.900Z</time>
      </trkpt>
      <trkpt lat="66.17085" lon="13.01671">
        <ele>45.148805</ele>
        <time>2020-08-14T12:08:54.870Z</time>
      </trkpt>
      <trkpt lat="66.1718" lon="13.01193">
        <ele>47.451533</ele>
        <time>2020-08-14T12:09:36.886Z</time>
      </trkpt>
      <trkpt lat="66.17283" lon="13.00705">
        <ele>48.806057</ele>
        <time>2020-08-14T12:10:18.875Z</time>
      </trkpt>
      <trkpt lat="66.17454" lon="13.00395">
        <ele>50.922583</ele>
        <time>2020-08-14T12:11:04.878Z</time>
      </trkpt>
      <trkpt lat="66.17692" lon="13.00302">
        <ele>52.385836</ele>
        <time>2020-08-14T12:11:51.875Z</time>
      </trkpt>
      <trkpt lat="66.17909" lon="13.00167">
        <ele>48.41959</ele>
        <time>2020-08-14T12:12:35.900Z</time>
      </trkpt>
      <trkpt lat="66.18124" lon="13.0007">
        <ele>46.888093</ele>
        <time>2020-08-14T12:13:16.884Z</time>
      </trkpt>
      <trkpt lat="66.18364" lon="12.99972">
        <ele>51.832399</ele>
        <time>2020-08-14T12:14:02.873Z</time>
      </trkpt>
      <trkpt lat="66.1858" lon="12.99911">
        <ele>58.160786</ele>
        <time>2020-08-14T12:14:42.884Z</time>
      </trkpt>
      <trkpt lat="66.18807" lon="12.9991">
        <ele>62.860385</ele>
        <time>2020-08-14T12:15:26.869Z</time>
      </trkpt>
      <trkpt lat="66.19027" lon="12.99954">
        <ele>51.868992</ele>
        <time>2020-08-14T12:16:06.907Z</time>
      </trkpt>
      <trkpt lat="66.19243" lon="13.00034">
        <ele>36.610991</ele>
        <time>2020-08-14T12:16:47.875Z</time>
      </trkpt>
      <trkpt lat="66.1948" lon="13.00135">
        <ele>36.016769</ele>
        <time>2020-08-14T12:17:29.877Z</time>
      </trkpt>
      <trkpt lat="66.19693" lon="13.0027">
        <ele>28.301057</ele>
        <time>2020-08-14T12:18:09.883Z</time>
      </trkpt>
      <trkpt lat="66.19921" lon="13.0045">
        <ele>25.112932</ele>
        <time>2020-08-14T12:18:58.875Z</time>
      </trkpt>
      <trkpt lat="66.20092" lon="13.00736">
        <ele>39.337547</ele>
        <time>2020-08-14T12:20:03.872Z</time>
      </trkpt>
      <trkpt lat="66.20037" lon="13.01305">
        <ele>44.475602</ele>
        <time>2020-08-14T12:27:11.856Z</time>
      </trkpt>
      <trkpt lat="66.20012" lon="13.01787">
        <ele>46.185286</ele>
        <time>2020-08-14T12:28:21.875Z</time>
      </trkpt>
      <trkpt lat="66.20003" lon="13.02276">
        <ele>52.767496</ele>
        <time>2020-08-14T12:29:32.876Z</time>
      </trkpt>
      <trkpt lat="66.2003" lon="13.02832">
        <ele>53.558372</ele>
        <time>2020-08-14T12:30:27.886Z</time>
      </trkpt>
      <trkpt lat="66.20067" lon="13.03327">
        <ele>53.52402</ele>
        <time>2020-08-14T12:31:09.872Z</time>
      </trkpt>
      <trkpt lat="66.20247" lon="13.03707">
        <ele>48.507322</ele>
        <time>2020-08-14T12:31:49.873Z</time>
      </trkpt>
      <trkpt lat="66.20487" lon="13.04073">
        <ele>42.659975</ele>
        <time>2020-08-14T12:32:26.917Z</time>
      </trkpt>
      <trkpt lat="66.2067" lon="13.0442">
        <ele>42.754212</ele>
        <time>2020-08-14T12:33:06.869Z</time>
      </trkpt>
      <trkpt lat="66.20831" lon="13.04818">
        <ele>42.385086</ele>
        <time>2020-08-14T12:33:46.894Z</time>
      </trkpt>
      <trkpt lat="66.21016" lon="13.05218">
        <ele>41.837984</ele>
        <time>2020-08-14T12:34:28.896Z</time>
      </trkpt>
      <trkpt lat="66.21219" lon="13.05446">
        <ele>47.452334</ele>
        <time>2020-08-14T12:35:20.880Z</time>
      </trkpt>
      <trkpt lat="66.21444" lon="13.0574">
        <ele>45.541556</ele>
        <time>2020-08-14T12:36:02.875Z</time>
      </trkpt>
      <trkpt lat="66.21584" lon="13.0623">
        <ele>41.897079</ele>
        <time>2020-08-14T12:36:42.878Z</time>
      </trkpt>
      <trkpt lat="66.2176" lon="13.06656">
        <ele>39.12054</ele>
        <time>2020-08-14T12:37:22.876Z</time>
      </trkpt>
      <trkpt lat="66.21865" lon="13.07162">
        <ele>42.329846</ele>
        <time>2020-08-14T12:38:04.897Z</time>
      </trkpt>
      <trkpt lat="66.21956" lon="13.07642">
        <ele>42.960542</ele>
        <time>2020-08-14T12:38:47.865Z</time>
      </trkpt>
      <trkpt lat="66.22105" lon="13.08021">
        <ele>42.081305</ele>
        <time>2020-08-14T12:39:30.866Z</time>
      </trkpt>
      <trkpt lat="66.22274" lon="13.08476">
        <ele>45.099249</ele>
        <time>2020-08-14T12:40:30.894Z</time>
      </trkpt>
      <trkpt lat="66.22418" lon="13.08867">
        <ele>48.651341</ele>
        <time>2020-08-14T12:41:18.878Z</time>
      </trkpt>
      <trkpt lat="66.22568" lon="13.09245">
        <ele>57.793622</ele>
        <time>2020-08-14T12:42:23.871Z</time>
      </trkpt>
      <trkpt lat="66.22734" lon="13.09544">
        <ele>61.021058</ele>
        <time>2020-08-14T12:43:26.875Z</time>
      </trkpt>
      <trkpt lat="66.22915" lon="13.09837">
        <ele>61.851878</ele>
        <time>2020-08-14T12:44:37.866Z</time>
      </trkpt>
      <trkpt lat="66.23096" lon="13.1012">
        <ele>70.562413</ele>
        <time>2020-08-14T12:48:31.879Z</time>
      </trkpt>
      <trkpt lat="66.23257" lon="13.10472">
        <ele>72.110918</ele>
        <time>2020-08-14T12:49:35.889Z</time>
      </trkpt>
      <trkpt lat="66.23455" lon="13.10761">
        <ele>69.723151</ele>
        <time>2020-08-14T12:50:21.903Z</time>
      </trkpt>
      <trkpt lat="66.23621" lon="13.11266">
        <ele>63.199015</ele>
        <time>2020-08-14T12:51:01.870Z</time>
      </trkpt>
      <trkpt lat="66.23774" lon="13.11751">
        <ele>60.892746</ele>
        <time>2020-08-14T12:51:43.873Z</time>
      </trkpt>
      <trkpt lat="66.23969" lon="13.12227">
        <ele>58.770172</ele>
        <time>2020-08-14T12:52:23.877Z</time>
      </trkpt>
      <trkpt lat="66.24129" lon="13.12649">
        <ele>54.561306</ele>
        <time>2020-08-14T12:53:03.890Z</time>
      </trkpt>
      <trkpt lat="66.24214" lon="13.13172">
        <ele>55.405891</ele>
        <time>2020-08-14T12:53:47.889Z</time>
      </trkpt>
      <trkpt lat="66.24362" lon="13.13599">
        <ele>50.371099</ele>
        <time>2020-08-14T12:54:17.889Z</time>
      </trkpt>
      <trkpt lat="66.24557" lon="13.14066">
        <ele>42.349894</ele>
        <time>2020-08-14T12:54:54.909Z</time>
      </trkpt>
      <trkpt lat="66.24724" lon="13.1443">
        <ele>42.808185</ele>
        <time>2020-08-14T12:55:34.881Z</time>
      </trkpt>
      <trkpt lat="66.24865" lon="13.14913">
        <ele>45.401681</ele>
        <time>2020-08-14T12:56:33.887Z</time>
      </trkpt>
      <trkpt lat="66.24981" lon="13.15374">
        <ele>52.561467</ele>
        <time>2020-08-14T12:57:45.908Z</time>
      </trkpt>
      <trkpt lat="66.25138" lon="13.15755">
        <ele>54.982639</ele>
        <time>2020-08-14T12:58:41.879Z</time>
      </trkpt>
      <trkpt lat="66.25342" lon="13.16244">
        <ele>45.781111</ele>
        <time>2020-08-14T12:59:21.873Z</time>
      </trkpt>
      <trkpt lat="66.25512" lon="13.16711">
        <ele>43.708954</ele>
        <time>2020-08-14T13:00:03.889Z</time>
      </trkpt>
      <trkpt lat="66.25654" lon="13.17105">
        <ele>43.364595</ele>
        <time>2020-08-14T13:00:43.896Z</time>
      </trkpt>
      <trkpt lat="66.25817" lon="13.17536">
        <ele>45.252504</ele>
        <time>2020-08-14T13:01:28.928Z</time>
      </trkpt>
      <trkpt lat="66.25988" lon="13.17916">
        <ele>47.423333</ele>
        <time>2020-08-14T13:02:28.877Z</time>
      </trkpt>
      <trkpt lat="66.26197" lon="13.18183">
        <ele>48.477795</ele>
        <time>2020-08-14T13:03:25.876Z</time>
      </trkpt>
      <trkpt lat="66.26448" lon="13.18544">
        <ele>44.679046</ele>
        <time>2020-08-14T13:04:07.863Z</time>
      </trkpt>
      <trkpt lat="66.26595" lon="13.18888">
        <ele>45.86345</ele>
        <time>2020-08-14T13:05:05.879Z</time>
      </trkpt>
      <trkpt lat="66.26761" lon="13.19254">
        <ele>51.549033</ele>
        <time>2020-08-14T13:06:02.919Z</time>
      </trkpt>
      <trkpt lat="66.26895" lon="13.19647">
        <ele>61.141927</ele>
        <time>2020-08-14T13:07:11.891Z</time>
      </trkpt>
      <trkpt lat="66.27004" lon="13.20073">
        <ele>70.580411</ele>
        <time>2020-08-14T13:08:27.883Z</time>
      </trkpt>
      <trkpt lat="66.27171" lon="13.20407">
        <ele>79.450431</ele>
        <time>2020-08-14T13:09:57.916Z</time>
      </trkpt>
      <trkpt lat="66.27278" lon="13.20794">
        <ele>83.009288</ele>
        <time>2020-08-14T13:11:28.880Z</time>
      </trkpt>
      <trkpt lat="66.27249" lon="13.21323">
        <ele>85.223103</ele>
        <time>2020-08-14T13:12:53.907Z</time>
      </trkpt>
      <trkpt lat="66.27213" lon="13.21816">
        <ele>98.248189</ele>
        <time>2020-08-14T13:14:40.928Z</time>
      </trkpt>
      <trkpt lat="66.27112" lon="13.22215">
        <ele>114.81616</ele>
        <time>2020-08-14T13:16:49.888Z</time>
      </trkpt>
      <trkpt lat="66.27126" lon="13.22715">
        <ele>128.083637</ele>
        <time>2020-08-14T13:18:45.905Z</time>
      </trkpt>
      <trkpt lat="66.27234" lon="13.22958">
        <ele>145.844673</ele>
        <time>2020-08-14T13:20:35.875Z</time>
      </trkpt>
      <trkpt lat="66.27385" lon="13.23008">
        <ele>159.814701</ele>
        <time>2020-08-14T13:22:44.898Z</time>
      </trkpt>
      <trkpt lat="66.27518" lon="13.23341">
        <ele>175.899784</ele>
        <time>2020-08-14T13:25:06.877Z</time>
      </trkpt>
      <trkpt lat="66.27414" lon="13.23517">
        <ele>190.226094</ele>
        <time>2020-08-14T13:27:15.896Z</time>
      </trkpt>
      <trkpt lat="66.27351" lon="13.23974">
        <ele>205.412486</ele>
        <time>2020-08-14T13:29:40.887Z</time>
      </trkpt>
      <trkpt lat="66.27416" lon="13.24412">
        <ele>220.346014</ele>
        <time>2020-08-14T13:32:03.887Z</time>
      </trkpt>
      <trkpt lat="66.27432" lon="13.24903">
        <ele>238.509093</ele>
        <time>2020-08-14T13:34:21.879Z</time>
      </trkpt>
      <trkpt lat="66.27618" lon="13.24903">
        <ele>253.095369</ele>
        <time>2020-08-14T13:36:40.890Z</time>
      </trkpt>
      <trkpt lat="66.2779" lon="13.24824">
        <ele>261.129783</ele>
        <time>2020-08-14T13:38:43.932Z</time>
      </trkpt>
      <trkpt lat="66.27861" lon="13.24765">
        <ele>273.159211</ele>
        <time>2020-08-14T13:40:50.905Z</time>
      </trkpt>
      <trkpt lat="66.27855" lon="13.25248">
        <ele>288.225957</ele>
        <time>2020-08-14T13:43:01.916Z</time>
      </trkpt>
      <trkpt lat="66.27945" lon="13.25673">
        <ele>303.082836</ele>
        <time>2020-08-14T13:45:12.889Z</time>
      </trkpt>
      <trkpt lat="66.28094" lon="13.26026">
        <ele>318.339613</ele>
        <time>2020-08-14T13:47:32.883Z</time>
      </trkpt>
      <trkpt lat="66.28162" lon="13.26318">
        <ele>330.958645</ele>
        <time>2020-08-14T13:53:11.891Z</time>
      </trkpt>
      <trkpt lat="66.28103" lon="13.26763">
        <ele>348.611886</ele>
        <time>2020-08-14T13:55:50.889Z</time>
      </trkpt>
      <trkpt lat="66.28135" lon="13.2717">
        <ele>361.436409</ele>
        <time>2020-08-14T13:58:23.879Z</time>
      </trkpt>
      <trkpt lat="66.28259" lon="13.27546">
        <ele>368.539817</ele>
        <time>2020-08-14T14:00:14.880Z</time>
      </trkpt>
      <trkpt lat="66.28382" lon="13.28045">
        <ele>362.638015</ele>
        <time>2020-08-14T14:01:28.880Z</time>
      </trkpt>
      <trkpt lat="66.28507" lon="13.28593">
        <ele>354.549991</ele>
        <time>2020-08-14T14:02:08.882Z</time>
      </trkpt>
      <trkpt lat="66.28707" lon="13.28945">
        <ele>342.059228</ele>
        <time>2020-08-14T14:02:45.889Z</time>
      </trkpt>
      <trkpt lat="66.28764" lon="13.2952">
        <ele>323.416873</ele>
        <time>2020-08-14T14:03:05.915Z</time>
      </trkpt>
      <trkpt lat="66.28872" lon="13.3009">
        <ele>306.42707</ele>
        <time>2020-08-14T14:03:25.892Z</time>
      </trkpt>
      <trkpt lat="66.28988" lon="13.30592">
        <ele>302.401074</ele>
        <time>2020-08-14T14:04:07.888Z</time>
      </trkpt>
      <trkpt lat="66.29088" lon="13.3102">
        <ele>319.22222</ele>
        <time>2020-08-14T14:05:50.917Z</time>
      </trkpt>
      <trkpt lat="66.29164" lon="13.31472">
        <ele>337.985599</ele>
        <time>2020-08-14T14:08:25.885Z</time>
      </trkpt>
      <trkpt lat="66.29177" lon="13.31946">
        <ele>356.103356</ele>
        <time>2020-08-14T14:11:00.901Z</time>
      </trkpt>
      <trkpt lat="66.29257" lon="13.3239">
        <ele>365.110676</ele>
        <time>2020-08-14T14:12:53.903Z</time>
      </trkpt>
      <trkpt lat="66.2934" lon="13.3287">
        <ele>370.141095</ele>
        <time>2020-08-14T14:14:38.898Z</time>
      </trkpt>
      <trkpt lat="66.29416" lon="13.3333">
        <ele>375.644066</ele>
        <time>2020-08-14T14:16:17.894Z</time>
      </trkpt>
      <trkpt lat="66.29501" lon="13.33863">
        <ele>376.725516</ele>
        <time>2020-08-14T14:17:42.908Z</time>
      </trkpt>
      <trkpt lat="66.29552" lon="13.34397">
        <ele>370.250709</ele>
        <time>2020-08-14T14:18:26.894Z</time>
      </trkpt>
      <trkpt lat="66.29624" lon="13.35085">
        <ele>357.999222</ele>
        <time>2020-08-14T14:19:06.918Z</time>
      </trkpt>
      <trkpt lat="66.29693" lon="13.35657">
        <ele>345.931777</ele>
        <time>2020-08-14T14:19:33.910Z</time>
      </trkpt>
      <trkpt lat="66.29763" lon="13.36195">
        <ele>342.139195</ele>
        <time>2020-08-14T14:22:06.910Z</time>
      </trkpt>
      <trkpt lat="66.29776" lon="13.36879">
        <ele>333.513248</ele>
        <time>2020-08-14T14:22:44.896Z</time>
      </trkpt>
      <trkpt lat="66.29784" lon="13.3758">
        <ele>310.853879</ele>
        <time>2020-08-14T14:23:05.905Z</time>
      </trkpt>
      <trkpt lat="66.29785" lon="13.3838">
        <ele>282.77043</ele>
        <time>2020-08-14T14:23:25.884Z</time>
      </trkpt>
      <trkpt lat="66.29792" lon="13.39049">
        <ele>263.065135</ele>
        <time>2020-08-14T14:23:46.893Z</time>
      </trkpt>
      <trkpt lat="66.298" lon="13.39716">
        <ele>246.490784</ele>
        <time>2020-08-14T14:24:06.895Z</time>
      </trkpt>
      <trkpt lat="66.29822" lon="13.40348">
        <ele>238.243526</ele>
        <time>2020-08-14T14:24:30.896Z</time>
      </trkpt>
      <trkpt lat="66.29944" lon="13.40803">
        <ele>233.989018</ele>
        <time>2020-08-14T14:24:52.898Z</time>
      </trkpt>
      <trkpt lat="66.3001" lon="13.41383">
        <ele>224.846808</ele>
        <time>2020-08-14T14:25:19.882Z</time>
      </trkpt>
      <trkpt lat="66.29978" lon="13.41965">
        <ele>206.842215</ele>
        <time>2020-08-14T14:25:40.908Z</time>
      </trkpt>
      <trkpt lat="66.29886" lon="13.42459">
        <ele>185.720137</ele>
        <time>2020-08-14T14:26:00.907Z</time>
      </trkpt>
      <trkpt lat="66.29682" lon="13.42646">
        <ele>160.137063</ele>
        <time>2020-08-14T14:26:24.912Z</time>
      </trkpt>
      <trkpt lat="66.29511" lon="13.4297">
        <ele>141.844803</ele>
        <time>2020-08-14T14:26:47.911Z</time>
      </trkpt>
      <trkpt lat="66.29588" lon="13.44037">
        <ele>127.968464</ele>
        <time>2020-08-14T14:27:42.913Z</time>
      </trkpt>
      <trkpt lat="66.2952" lon="13.44632">
        <ele>110.501965</ele>
        <time>2020-08-14T14:28:03.909Z</time>
      </trkpt>
      <trkpt lat="66.29661" lon="13.45101">
        <ele>92.192288</ele>
        <time>2020-08-14T14:28:23.903Z</time>
      </trkpt>
      <trkpt lat="66.29856" lon="13.45376">
        <ele>75.546651</ele>
        <time>2020-08-14T14:28:43.917Z</time>
      </trkpt>
      <trkpt lat="66.30001" lon="13.45757">
        <ele>57.2474</ele>
        <time>2020-08-14T14:29:04.904Z</time>
      </trkpt>
      <trkpt lat="66.3003" lon="13.46359">
        <ele>43.872943</ele>
        <time>2020-08-14T14:29:24.912Z</time>
      </trkpt>
      <trkpt lat="66.30087" lon="13.46894">
        <ele>54.359149</ele>
        <time>2020-08-14T14:30:30.890Z</time>
      </trkpt>
      <trkpt lat="66.3015" lon="13.47382">
        <ele>60.219384</ele>
        <time>2020-08-14T14:31:50.872Z</time>
      </trkpt>
      <trkpt lat="66.30215" lon="13.47912">
        <ele>61.620446</ele>
        <time>2020-08-14T14:32:53.919Z</time>
      </trkpt>
      <trkpt lat="66.30274" lon="13.48418">
        <ele>64.643161</ele>
        <time>2020-08-14T14:34:23.937Z</time>
      </trkpt>
      <trkpt lat="66.30322" lon="13.48979">
        <ele>59.714971</ele>
        <time>2020-08-14T14:35:05.898Z</time>
      </trkpt>
      <trkpt lat="66.30392" lon="13.49676">
        <ele>54.179111</ele>
        <time>2020-08-14T14:35:46.891Z</time>
      </trkpt>
      <trkpt lat="66.30368" lon="13.5023">
        <ele>58.061503</ele>
        <time>2020-08-14T14:36:36.918Z</time>
      </trkpt>
      <trkpt lat="66.30284" lon="13.50716">
        <ele>61.295085</ele>
        <time>2020-08-14T14:37:45.917Z</time>
      </trkpt>
      <trkpt lat="66.30213" lon="13.51237">
        <ele>61.703534</ele>
        <time>2020-08-14T14:38:52.902Z</time>
      </trkpt>
      <trkpt lat="66.30082" lon="13.51647">
        <ele>64.107912</ele>
        <time>2020-08-14T14:39:52.906Z</time>
      </trkpt>
      <trkpt lat="66.29959" lon="13.52082">
        <ele>70.342199</ele>
        <time>2020-08-14T14:40:57.910Z</time>
      </trkpt>
      <trkpt lat="66.29854" lon="13.52557">
        <ele>76.176757</ele>
        <time>2020-08-14T14:42:14.913Z</time>
      </trkpt>
      <trkpt lat="66.29787" lon="13.53075">
        <ele>75.727092</ele>
        <time>2020-08-14T14:43:17.917Z</time>
      </trkpt>
      <trkpt lat="66.29733" lon="13.53839">
        <ele>68.534493</ele>
        <time>2020-08-14T14:43:59.902Z</time>
      </trkpt>
      <trkpt lat="66.29638" lon="13.54557">
        <ele>60.029956</ele>
        <time>2020-08-14T14:44:39.899Z</time>
      </trkpt>
      <trkpt lat="66.29562" lon="13.55163">
        <ele>57.629339</ele>
        <time>2020-08-14T14:45:19.908Z</time>
      </trkpt>
      <trkpt lat="66.29491" lon="13.55682">
        <ele>55.890972</ele>
        <time>2020-08-14T14:46:01.902Z</time>
      </trkpt>
      <trkpt lat="66.29367" lon="13.56105">
        <ele>53.82301</ele>
        <time>2020-08-14T14:46:43.930Z</time>
      </trkpt>
      <trkpt lat="66.29226" lon="13.5665">
        <ele>51.126876</ele>
        <time>2020-08-14T14:47:25.928Z</time>
      </trkpt>
      <trkpt lat="66.29287" lon="13.57029">
        <ele>55.809514</ele>
        <time>2020-08-14T14:50:10.895Z</time>
      </trkpt>
      <trkpt lat="66.29294" lon="13.57495">
        <ele>63.174625</ele>
        <time>2020-08-14T14:51:51.929Z</time>
      </trkpt>
      <trkpt lat="66.29135" lon="13.57625">
        <ele>59.519073</ele>
        <time>2020-08-14T14:53:04.910Z</time>
      </trkpt>
    </trkseg>
  </trk>
</gpx>